sensor_id;sensor_type;location;lat;lon;timestamp;P1;durP1;ratioP1;P2;durP2;ratioP2
41623;SDS011;27319;50.306;18.926;2023-04-22T00:03:50;37.13;;;17.95;;
41623;SDS011;27319;50.306;18.926;2023-04-22T00:07:51;31.90;;;16.42;;
41623;SDS011;27319;50.306;18.926;2023-04-22T00:11:52;30.95;;;15.75;;
41623;SDS011;27319;50.306;18.926;2023-04-22T00:15:53;33.65;;;17.65;;
41623;SDS011;27319;50.306;18.926;2023-04-22T00:19:49;33.28;;;17.85;;
41623;SDS011;27319;50.306;18.926;2023-04-22T00:23:50;35.28;;;18.20;;
41623;SDS011;27319;50.306;18.926;2023-04-22T00:27:51;40.97;;;19.27;;
41623;SDS011;27319;50.306;18.926;2023-04-22T00:31:52;30.90;;;17.05;;
41623;SDS011;27319;50.306;18.926;2023-04-22T00:35:53;28.17;;;17.60;;
41623;SDS011;27319;50.306;18.926;2023-04-22T00:39:54;27.73;;;16.58;;
41623;SDS011;27319;50.306;18.926;2023-04-22T00:43:54;33.83;;;17.33;;
41623;SDS011;27319;50.306;18.926;2023-04-22T00:47:55;27.80;;;16.52;;
41623;SDS011;27319;50.306;18.926;2023-04-22T00:51:56;31.75;;;18.02;;
41623;SDS011;27319;50.306;18.926;2023-04-22T00:54:57;33.95;;;17.33;;
41623;SDS011;27319;50.306;18.926;2023-04-22T00:58:57;28.20;;;16.60;;
41623;SDS011;27319;50.306;18.926;2023-04-22T01:02:58;29.80;;;17.23;;
41623;SDS011;27319;50.306;18.926;2023-04-22T01:06:39;30.23;;;16.45;;
41623;SDS011;27319;50.306;18.926;2023-04-22T01:10:40;33.90;;;16.85;;
41623;SDS011;27319;50.306;18.926;2023-04-22T01:14:41;29.80;;;15.93;;
41623;SDS011;27319;50.306;18.926;2023-04-22T01:18:41;27.20;;;16.52;;
41623;SDS011;27319;50.306;18.926;2023-04-22T01:22:43;28.70;;;16.17;;
41623;SDS011;27319;50.306;18.926;2023-04-22T01:26:43;28.60;;;16.15;;
41623;SDS011;27319;50.306;18.926;2023-04-22T01:30:11;27.75;;;16.23;;
41623;SDS011;27319;50.306;18.926;2023-04-22T01:34:12;28.15;;;16.23;;
41623;SDS011;27319;50.306;18.926;2023-04-22T01:38:13;29.20;;;17.27;;
41623;SDS011;27319;50.306;18.926;2023-04-22T01:42:14;29.65;;;15.85;;
41623;SDS011;27319;50.306;18.926;2023-04-22T01:46:15;27.10;;;16.58;;
41623;SDS011;27319;50.306;18.926;2023-04-22T01:50:16;26.95;;;15.15;;
41623;SDS011;27319;50.306;18.926;2023-04-22T01:54:16;25.73;;;15.27;;
41623;SDS011;27319;50.306;18.926;2023-04-22T01:58:17;24.42;;;15.45;;
41623;SDS011;27319;50.306;18.926;2023-04-22T02:02:18;31.48;;;16.13;;
41623;SDS011;27319;50.306;18.926;2023-04-22T02:05:35;43.22;;;17.23;;
41623;SDS011;27319;50.306;18.926;2023-04-22T02:09:35;26.02;;;15.13;;
41623;SDS011;27319;50.306;18.926;2023-04-22T02:13:37;25.60;;;13.88;;
41623;SDS011;27319;50.306;18.926;2023-04-22T02:17:37;29.30;;;15.30;;
41623;SDS011;27319;50.306;18.926;2023-04-22T02:21:38;26.65;;;15.75;;
41623;SDS011;27319;50.306;18.926;2023-04-22T02:25:38;29.25;;;16.33;;
41623;SDS011;27319;50.306;18.926;2023-04-22T02:29:39;25.17;;;16.15;;
41623;SDS011;27319;50.306;18.926;2023-04-22T02:33:40;28.38;;;16.00;;
41623;SDS011;27319;50.306;18.926;2023-04-22T02:37:41;32.70;;;16.75;;
41623;SDS011;27319;50.306;18.926;2023-04-22T02:40:45;28.52;;;15.32;;
41623;SDS011;27319;50.306;18.926;2023-04-22T02:44:46;28.30;;;16.08;;
41623;SDS011;27319;50.306;18.926;2023-04-22T02:48:47;30.60;;;16.23;;
41623;SDS011;27319;50.306;18.926;2023-04-22T02:52:48;28.40;;;15.52;;
41623;SDS011;27319;50.306;18.926;2023-04-22T02:56:48;28.45;;;15.85;;
41623;SDS011;27319;50.306;18.926;2023-04-22T03:00:49;28.15;;;15.95;;
41623;SDS011;27319;50.306;18.926;2023-04-22T03:04:50;24.95;;;14.75;;
41623;SDS011;27319;50.306;18.926;2023-04-22T03:08:51;29.13;;;15.68;;
41623;SDS011;27319;50.306;18.926;2023-04-22T03:12:52;22.40;;;13.57;;
41623;SDS011;27319;50.306;18.926;2023-04-22T03:16:00;26.02;;;15.30;;
41623;SDS011;27319;50.306;18.926;2023-04-22T03:20:01;24.05;;;14.48;;
41623;SDS011;27319;50.306;18.926;2023-04-22T03:24:02;28.27;;;15.90;;
41623;SDS011;27319;50.306;18.926;2023-04-22T03:27:03;30.95;;;15.52;;
41623;SDS011;27319;50.306;18.926;2023-04-22T03:31:03;25.25;;;14.32;;
41623;SDS011;27319;50.306;18.926;2023-04-22T03:35:04;23.10;;;15.38;;
41623;SDS011;27319;50.306;18.926;2023-04-22T03:39:05;24.77;;;15.45;;
41623;SDS011;27319;50.306;18.926;2023-04-22T03:43:06;24.95;;;14.73;;
41623;SDS011;27319;50.306;18.926;2023-04-22T03:46:22;25.33;;;15.10;;
41623;SDS011;27319;50.306;18.926;2023-04-22T03:50:23;26.92;;;14.80;;
41623;SDS011;27319;50.306;18.926;2023-04-22T03:54:24;24.42;;;14.07;;
41623;SDS011;27319;50.306;18.926;2023-04-22T03:58:25;26.83;;;15.32;;
41623;SDS011;27319;50.306;18.926;2023-04-22T04:02:25;25.80;;;14.93;;
41623;SDS011;27319;50.306;18.926;2023-04-22T04:06:02;28.45;;;17.05;;
41623;SDS011;27319;50.306;18.926;2023-04-22T04:10:03;24.73;;;14.60;;
41623;SDS011;27319;50.306;18.926;2023-04-22T04:14:03;24.65;;;14.93;;
41623;SDS011;27319;50.306;18.926;2023-04-22T04:17:24;24.60;;;15.20;;
41623;SDS011;27319;50.306;18.926;2023-04-22T04:21:25;27.08;;;15.25;;
41623;SDS011;27319;50.306;18.926;2023-04-22T04:25:25;30.60;;;15.85;;
41623;SDS011;27319;50.306;18.926;2023-04-22T04:28:28;26.60;;;15.93;;
41623;SDS011;27319;50.306;18.926;2023-04-22T04:32:29;23.90;;;14.40;;
41623;SDS011;27319;50.306;18.926;2023-04-22T04:36:30;30.15;;;15.32;;
41623;SDS011;27319;50.306;18.926;2023-04-22T04:40:31;23.85;;;15.20;;
41623;SDS011;27319;50.306;18.926;2023-04-22T04:44:31;26.95;;;14.43;;
41623;SDS011;27319;50.306;18.926;2023-04-22T04:48:32;24.63;;;14.45;;
41623;SDS011;27319;50.306;18.926;2023-04-22T04:52:33;25.58;;;15.32;;
41623;SDS011;27319;50.306;18.926;2023-04-22T04:56:33;30.02;;;16.55;;
41623;SDS011;27319;50.306;18.926;2023-04-22T05:00:34;34.72;;;17.50;;
41623;SDS011;27319;50.306;18.926;2023-04-22T05:04:35;31.45;;;16.55;;
41623;SDS011;27319;50.306;18.926;2023-04-22T05:08:36;28.10;;;16.77;;
41623;SDS011;27319;50.306;18.926;2023-04-22T05:12:36;33.92;;;17.60;;
41623;SDS011;27319;50.306;18.926;2023-04-22T05:16:37;31.10;;;17.00;;
41623;SDS011;27319;50.306;18.926;2023-04-22T05:20:38;32.13;;;18.55;;
41623;SDS011;27319;50.306;18.926;2023-04-22T05:24:39;35.55;;;20.73;;
41623;SDS011;27319;50.306;18.926;2023-04-22T05:28:07;36.28;;;22.48;;
41623;SDS011;27319;50.306;18.926;2023-04-22T05:32:08;34.97;;;21.08;;
41623;SDS011;27319;50.306;18.926;2023-04-22T05:35:09;37.20;;;20.88;;
41623;SDS011;27319;50.306;18.926;2023-04-22T05:38:10;29.48;;;19.88;;
41623;SDS011;27319;50.306;18.926;2023-04-22T05:42:11;42.65;;;21.83;;
41623;SDS011;27319;50.306;18.926;2023-04-22T05:46:12;29.08;;;18.92;;
41623;SDS011;27319;50.306;18.926;2023-04-22T05:50:13;36.05;;;19.13;;
41623;SDS011;27319;50.306;18.926;2023-04-22T05:54:13;31.50;;;19.30;;
41623;SDS011;27319;50.306;18.926;2023-04-22T05:58:14;32.90;;;19.50;;
41623;SDS011;27319;50.306;18.926;2023-04-22T06:02:15;37.17;;;20.55;;
41623;SDS011;27319;50.306;18.926;2023-04-22T06:06:16;30.25;;;19.00;;
41623;SDS011;27319;50.306;18.926;2023-04-22T06:09:53;38.55;;;18.67;;
41623;SDS011;27319;50.306;18.926;2023-04-22T06:12:54;34.50;;;18.35;;
41623;SDS011;27319;50.306;18.926;2023-04-22T06:15:55;35.00;;;17.58;;
41623;SDS011;27319;50.306;18.926;2023-04-22T06:18:56;31.85;;;18.52;;
41623;SDS011;27319;50.306;18.926;2023-04-22T06:21:57;33.55;;;17.80;;
41623;SDS011;27319;50.306;18.926;2023-04-22T06:25:58;35.65;;;17.55;;
41623;SDS011;27319;50.306;18.926;2023-04-22T06:29:01;32.17;;;17.10;;
41623;SDS011;27319;50.306;18.926;2023-04-22T06:33:01;33.50;;;16.40;;
41623;SDS011;27319;50.306;18.926;2023-04-22T06:36:02;32.15;;;16.42;;
41623;SDS011;27319;50.306;18.926;2023-04-22T06:40:03;26.50;;;14.73;;
41623;SDS011;27319;50.306;18.926;2023-04-22T06:43:04;25.65;;;13.75;;
41623;SDS011;27319;50.306;18.926;2023-04-22T06:47:05;29.98;;;13.82;;
41623;SDS011;27319;50.306;18.926;2023-04-22T06:51:06;31.30;;;11.95;;
41623;SDS011;27319;50.306;18.926;2023-04-22T06:55:06;32.97;;;11.38;;
41623;SDS011;27319;50.306;18.926;2023-04-22T06:59:07;20.83;;;11.35;;
41623;SDS011;27319;50.306;18.926;2023-04-22T07:03:08;21.63;;;11.13;;
41623;SDS011;27319;50.306;18.926;2023-04-22T07:06:09;24.65;;;11.55;;
41623;SDS011;27319;50.306;18.926;2023-04-22T07:09:10;30.40;;;11.70;;
41623;SDS011;27319;50.306;18.926;2023-04-22T07:13:11;28.67;;;11.52;;
41623;SDS011;27319;50.306;18.926;2023-04-22T07:17:11;26.15;;;12.30;;
41623;SDS011;27319;50.306;18.926;2023-04-22T07:21:13;29.20;;;12.48;;
41623;SDS011;27319;50.306;18.926;2023-04-22T07:25:13;22.02;;;10.93;;
41623;SDS011;27319;50.306;18.926;2023-04-22T07:29:14;21.10;;;11.45;;
41623;SDS011;27319;50.306;18.926;2023-04-22T07:33:15;15.45;;;9.10;;
41623;SDS011;27319;50.306;18.926;2023-04-22T07:37:16;18.00;;;9.65;;
41623;SDS011;27319;50.306;18.926;2023-04-22T07:41:17;23.15;;;9.70;;
41623;SDS011;27319;50.306;18.926;2023-04-22T07:45:18;16.30;;;8.77;;
41623;SDS011;27319;50.306;18.926;2023-04-22T07:49:18;17.08;;;8.85;;
41623;SDS011;27319;50.306;18.926;2023-04-22T07:53:19;13.32;;;8.15;;
41623;SDS011;27319;50.306;18.926;2023-04-22T07:57:20;15.35;;;7.00;;
41623;SDS011;27319;50.306;18.926;2023-04-22T08:01:21;16.65;;;7.38;;
41623;SDS011;27319;50.306;18.926;2023-04-22T08:04:21;20.83;;;8.95;;
41623;SDS011;27319;50.306;18.926;2023-04-22T08:07:23;14.25;;;6.63;;
41623;SDS011;27319;50.306;18.926;2023-04-22T08:10:25;11.13;;;6.13;;
41623;SDS011;27319;50.306;18.926;2023-04-22T08:13:26;10.68;;;7.15;;
41623;SDS011;27319;50.306;18.926;2023-04-22T08:16:27;20.23;;;9.52;;
41623;SDS011;27319;50.306;18.926;2023-04-22T08:19:28;13.10;;;6.95;;
41623;SDS011;27319;50.306;18.926;2023-04-22T08:22:29;14.48;;;6.78;;
41623;SDS011;27319;50.306;18.926;2023-04-22T08:25:31;15.15;;;7.40;;
41623;SDS011;27319;50.306;18.926;2023-04-22T08:28:33;14.18;;;6.53;;
41623;SDS011;27319;50.306;18.926;2023-04-22T08:31:35;14.40;;;6.47;;
41623;SDS011;27319;50.306;18.926;2023-04-22T08:34:35;12.55;;;6.82;;
41623;SDS011;27319;50.306;18.926;2023-04-22T08:37:36;17.48;;;7.00;;
41623;SDS011;27319;50.306;18.926;2023-04-22T08:40:40;11.32;;;5.35;;
41623;SDS011;27319;50.306;18.926;2023-04-22T08:43:42;18.40;;;6.68;;
41623;SDS011;27319;50.306;18.926;2023-04-22T08:46:44;12.32;;;6.40;;
41623;SDS011;27319;50.306;18.926;2023-04-22T08:49:46;16.27;;;4.78;;
41623;SDS011;27319;50.306;18.926;2023-04-22T08:52:49;10.30;;;5.25;;
41623;SDS011;27319;50.306;18.926;2023-04-22T08:55:50;16.92;;;6.72;;
41623;SDS011;27319;50.306;18.926;2023-04-22T08:58:53;9.73;;;4.82;;
41623;SDS011;27319;50.306;18.926;2023-04-22T09:01:55;9.27;;;5.68;;
41623;SDS011;27319;50.306;18.926;2023-04-22T09:04:57;6.80;;;4.60;;
41623;SDS011;27319;50.306;18.926;2023-04-22T09:08:02;13.63;;;4.20;;
41623;SDS011;27319;50.306;18.926;2023-04-22T09:11:03;9.77;;;4.18;;
41623;SDS011;27319;50.306;18.926;2023-04-22T09:14:04;12.88;;;4.32;;
41623;SDS011;27319;50.306;18.926;2023-04-22T09:17:05;10.32;;;4.50;;
41623;SDS011;27319;50.306;18.926;2023-04-22T09:20:07;8.13;;;4.03;;
41623;SDS011;27319;50.306;18.926;2023-04-22T09:23:08;6.28;;;4.32;;
41623;SDS011;27319;50.306;18.926;2023-04-22T09:26:12;9.95;;;4.70;;
41623;SDS011;27319;50.306;18.926;2023-04-22T09:30:12;11.48;;;6.13;;
41623;SDS011;27319;50.306;18.926;2023-04-22T09:34:13;10.25;;;5.03;;
41623;SDS011;27319;50.306;18.926;2023-04-22T09:38:14;7.03;;;4.65;;
41623;SDS011;27319;50.306;18.926;2023-04-22T09:41:16;7.07;;;4.15;;
41623;SDS011;27319;50.306;18.926;2023-04-22T09:44:17;7.50;;;4.55;;
41623;SDS011;27319;50.306;18.926;2023-04-22T09:47:18;10.43;;;5.57;;
41623;SDS011;27319;50.306;18.926;2023-04-22T09:50:21;9.18;;;4.10;;
41623;SDS011;27319;50.306;18.926;2023-04-22T09:54:30;8.60;;;4.90;;
41623;SDS011;27319;50.306;18.926;2023-04-22T09:58:30;9.57;;;4.90;;
41623;SDS011;27319;50.306;18.926;2023-04-22T10:02:31;10.57;;;4.70;;
41623;SDS011;27319;50.306;18.926;2023-04-22T10:06:32;19.08;;;7.07;;
41623;SDS011;27319;50.306;18.926;2023-04-22T10:10:33;12.13;;;5.75;;
41623;SDS011;27319;50.306;18.926;2023-04-22T10:14:34;11.70;;;5.55;;
41623;SDS011;27319;50.306;18.926;2023-04-22T10:18:36;40.72;;;14.05;;
41623;SDS011;27319;50.306;18.926;2023-04-22T10:22:35;7.07;;;4.60;;
41623;SDS011;27319;50.306;18.926;2023-04-22T10:26:46;10.25;;;5.32;;
41623;SDS011;27319;50.306;18.926;2023-04-22T10:29:54;8.48;;;4.32;;
41623;SDS011;27319;50.306;18.926;2023-04-22T10:36:31;6.40;;;4.30;;
41623;SDS011;27319;50.306;18.926;2023-04-22T10:39:32;11.35;;;5.72;;
41623;SDS011;27319;50.306;18.926;2023-04-22T10:42:33;9.32;;;4.35;;
41623;SDS011;27319;50.306;18.926;2023-04-22T10:45:35;21.35;;;5.57;;
41623;SDS011;27319;50.306;18.926;2023-04-22T10:49:35;6.50;;;4.70;;
41623;SDS011;27319;50.306;18.926;2023-04-22T10:53:34;10.45;;;4.65;;
41623;SDS011;27319;50.306;18.926;2023-04-22T10:57:36;7.93;;;4.70;;
41623;SDS011;27319;50.306;18.926;2023-04-22T11:01:40;8.32;;;4.60;;
41623;SDS011;27319;50.306;18.926;2023-04-22T11:05:39;12.02;;;4.72;;
41623;SDS011;27319;50.306;18.926;2023-04-22T11:09:57;6.40;;;4.50;;
41623;SDS011;27319;50.306;18.926;2023-04-22T11:13:53;9.88;;;4.97;;
41623;SDS011;27319;50.306;18.926;2023-04-22T11:17:53;9.05;;;4.43;;
41623;SDS011;27319;50.306;18.926;2023-04-22T11:21:57;7.68;;;4.60;;
41623;SDS011;27319;50.306;18.926;2023-04-22T11:26:02;12.77;;;4.95;;
41623;SDS011;27319;50.306;18.926;2023-04-22T11:29:04;9.95;;;4.72;;
41623;SDS011;27319;50.306;18.926;2023-04-22T11:32:05;6.65;;;4.30;;
41623;SDS011;27319;50.306;18.926;2023-04-22T11:35:07;21.92;;;12.25;;
41623;SDS011;27319;50.306;18.926;2023-04-22T11:38:11;13.57;;;5.95;;
41623;SDS011;27319;50.306;18.926;2023-04-22T11:41:12;9.68;;;4.82;;
41623;SDS011;27319;50.306;18.926;2023-04-22T11:44:13;10.73;;;4.97;;
41623;SDS011;27319;50.306;18.926;2023-04-22T11:47:14;8.00;;;4.90;;
41623;SDS011;27319;50.306;18.926;2023-04-22T11:50:16;8.52;;;4.20;;
41623;SDS011;27319;50.306;18.926;2023-04-22T11:53:20;8.38;;;4.78;;
41623;SDS011;27319;50.306;18.926;2023-04-22T11:56:23;5.80;;;3.92;;
41623;SDS011;27319;50.306;18.926;2023-04-22T12:00:28;8.77;;;4.00;;
41623;SDS011;27319;50.306;18.926;2023-04-22T12:04:28;5.07;;;3.67;;
41623;SDS011;27319;50.306;18.926;2023-04-22T12:08:33;6.07;;;3.20;;
41623;SDS011;27319;50.306;18.926;2023-04-22T12:12:32;8.27;;;3.22;;
41623;SDS011;27319;50.306;18.926;2023-04-22T12:16:40;5.95;;;3.38;;
41623;SDS011;27319;50.306;18.926;2023-04-22T12:20:43;9.48;;;3.85;;
41623;SDS011;27319;50.306;18.926;2023-04-22T12:24:27;10.05;;;4.10;;
41623;SDS011;27319;50.306;18.926;2023-04-22T12:28:23;7.57;;;3.70;;
41623;SDS011;27319;50.306;18.926;2023-04-22T12:32:24;6.80;;;3.72;;
41623;SDS011;27319;50.306;18.926;2023-04-22T12:36:25;7.10;;;3.53;;
41623;SDS011;27319;50.306;18.926;2023-04-22T12:40:00;6.00;;;3.55;;
41623;SDS011;27319;50.306;18.926;2023-04-22T12:44:01;5.55;;;3.42;;
41623;SDS011;27319;50.306;18.926;2023-04-22T12:48:02;12.13;;;5.63;;
41623;SDS011;27319;50.306;18.926;2023-04-22T12:52:02;8.55;;;5.43;;
41623;SDS011;27319;50.306;18.926;2023-04-22T12:56:03;6.15;;;4.50;;
41623;SDS011;27319;50.306;18.926;2023-04-22T13:00:04;7.85;;;5.50;;
41623;SDS011;27319;50.306;18.926;2023-04-22T13:03:18;7.68;;;5.07;;
41623;SDS011;27319;50.306;18.926;2023-04-22T13:07:18;6.57;;;4.20;;
41623;SDS011;27319;50.306;18.926;2023-04-22T13:10:19;67.35;;;17.70;;
41623;SDS011;27319;50.306;18.926;2023-04-22T13:13:22;8.38;;;4.90;;
41623;SDS011;27319;50.306;18.926;2023-04-22T13:16:22;6.28;;;4.25;;
41623;SDS011;27319;50.306;18.926;2023-04-22T13:20:23;8.60;;;3.80;;
41623;SDS011;27319;50.306;18.926;2023-04-22T13:24:24;8.68;;;4.25;;
41623;SDS011;27319;50.306;18.926;2023-04-22T13:28:21;5.95;;;4.53;;
41623;SDS011;27319;50.306;18.926;2023-04-22T13:31:22;7.72;;;4.28;;
41623;SDS011;27319;50.306;18.926;2023-04-22T13:34:23;8.45;;;5.50;;
41623;SDS011;27319;50.306;18.926;2023-04-22T13:37:24;8.57;;;4.00;;
41623;SDS011;27319;50.306;18.926;2023-04-22T13:40:25;9.90;;;5.65;;
41623;SDS011;27319;50.306;18.926;2023-04-22T13:43:26;10.13;;;4.07;;
41623;SDS011;27319;50.306;18.926;2023-04-22T13:46:27;6.78;;;3.30;;
41623;SDS011;27319;50.306;18.926;2023-04-22T13:49:28;14.88;;;3.60;;
41623;SDS011;27319;50.306;18.926;2023-04-22T13:53:29;4.97;;;3.95;;
41623;SDS011;27319;50.306;18.926;2023-04-22T13:57:30;5.15;;;3.20;;
41623;SDS011;27319;50.306;18.926;2023-04-22T14:01:31;8.20;;;3.60;;
41623;SDS011;27319;50.306;18.926;2023-04-22T14:09:00;6.53;;;4.75;;
41623;SDS011;27319;50.306;18.926;2023-04-22T14:13:01;8.50;;;3.40;;
41623;SDS011;27319;50.306;18.926;2023-04-22T14:17:02;8.23;;;5.65;;
41623;SDS011;27319;50.306;18.926;2023-04-22T14:21:03;5.25;;;3.35;;
41623;SDS011;27319;50.306;18.926;2023-04-22T14:25:04;5.43;;;2.65;;
41623;SDS011;27319;50.306;18.926;2023-04-22T14:28:05;3.63;;;3.17;;
41623;SDS011;27319;50.306;18.926;2023-04-22T14:31:06;6.18;;;4.30;;
41623;SDS011;27319;50.306;18.926;2023-04-22T14:34:07;13.98;;;6.50;;
41623;SDS011;27319;50.306;18.926;2023-04-22T14:37:08;11.80;;;8.18;;
41623;SDS011;27319;50.306;18.926;2023-04-22T14:40:09;17.92;;;9.50;;
41623;SDS011;27319;50.306;18.926;2023-04-22T14:43:12;16.63;;;11.77;;
41623;SDS011;27319;50.306;18.926;2023-04-22T14:46:13;7.50;;;4.55;;
41623;SDS011;27319;50.306;18.926;2023-04-22T14:50:14;7.15;;;3.75;;
41623;SDS011;27319;50.306;18.926;2023-04-22T14:54:15;7.40;;;3.78;;
41623;SDS011;27319;50.306;18.926;2023-04-22T14:58:15;3.00;;;2.47;;
41623;SDS011;27319;50.306;18.926;2023-04-22T15:01:16;6.88;;;3.42;;
41623;SDS011;27319;50.306;18.926;2023-04-22T15:04:17;4.80;;;2.67;;
41623;SDS011;27319;50.306;18.926;2023-04-22T15:07:18;4.65;;;2.40;;
41623;SDS011;27319;50.306;18.926;2023-04-22T15:11:19;5.93;;;3.40;;
41623;SDS011;27319;50.306;18.926;2023-04-22T15:14:20;11.77;;;9.88;;
41623;SDS011;27319;50.306;18.926;2023-04-22T15:18:21;33.85;;;25.77;;
41623;SDS011;27319;50.306;18.926;2023-04-22T15:22:22;23.90;;;18.48;;
41623;SDS011;27319;50.306;18.926;2023-04-22T15:25:24;31.08;;;21.58;;
41623;SDS011;27319;50.306;18.926;2023-04-22T15:28:26;17.30;;;12.13;;
41623;SDS011;27319;50.306;18.926;2023-04-22T15:31:27;44.38;;;32.38;;
41623;SDS011;27319;50.306;18.926;2023-04-22T15:34:28;29.80;;;24.35;;
41623;SDS011;27319;50.306;18.926;2023-04-22T15:37:29;23.70;;;18.45;;
41623;SDS011;27319;50.306;18.926;2023-04-22T15:40:30;22.45;;;16.20;;
41623;SDS011;27319;50.306;18.926;2023-04-22T15:43:31;10.68;;;8.15;;
41623;SDS011;27319;50.306;18.926;2023-04-22T15:46:33;18.35;;;9.65;;
41623;SDS011;27319;50.306;18.926;2023-04-22T15:49:34;6.00;;;4.88;;
41623;SDS011;27319;50.306;18.926;2023-04-22T15:52:37;44.95;;;28.33;;
41623;SDS011;27319;50.306;18.926;2023-04-22T15:55:38;11.70;;;8.07;;
41623;SDS011;27319;50.306;18.926;2023-04-22T15:58:39;5.65;;;4.25;;
41623;SDS011;27319;50.306;18.926;2023-04-22T16:01:40;16.90;;;12.75;;
41623;SDS011;27319;50.306;18.926;2023-04-22T16:05:41;145.18;;;106.43;;
41623;SDS011;27319;50.306;18.926;2023-04-22T16:09:42;139.40;;;98.90;;
41623;SDS011;27319;50.306;18.926;2023-04-22T16:13:43;54.90;;;36.85;;
41623;SDS011;27319;50.306;18.926;2023-04-22T16:17:44;35.20;;;23.10;;
41623;SDS011;27319;50.306;18.926;2023-04-22T16:21:04;8.85;;;5.47;;
41623;SDS011;27319;50.306;18.926;2023-04-22T16:24:06;13.65;;;9.07;;
41623;SDS011;27319;50.306;18.926;2023-04-22T16:27:06;13.30;;;8.48;;
41623;SDS011;27319;50.306;18.926;2023-04-22T16:30:08;20.88;;;9.98;;
41623;SDS011;27319;50.306;18.926;2023-04-22T16:33:09;11.73;;;8.45;;
41623;SDS011;27319;50.306;18.926;2023-04-22T16:36:10;11.63;;;5.32;;
41623;SDS011;27319;50.306;18.926;2023-04-22T16:39:11;9.70;;;4.72;;
41623;SDS011;27319;50.306;18.926;2023-04-22T16:42:12;8.75;;;4.50;;
41623;SDS011;27319;50.306;18.926;2023-04-22T16:45:13;6.68;;;4.35;;
41623;SDS011;27319;50.306;18.926;2023-04-22T16:48:14;6.00;;;3.83;;
41623;SDS011;27319;50.306;18.926;2023-04-22T16:52:14;9.13;;;4.60;;
41623;SDS011;27319;50.306;18.926;2023-04-22T16:55:15;6.57;;;3.97;;
41623;SDS011;27319;50.306;18.926;2023-04-22T16:58:16;5.82;;;3.75;;
41623;SDS011;27319;50.306;18.926;2023-04-22T17:02:17;9.20;;;4.65;;
41623;SDS011;27319;50.306;18.926;2023-04-22T17:06:18;8.80;;;3.97;;
41623;SDS011;27319;50.306;18.926;2023-04-22T17:10:19;5.15;;;3.55;;
41623;SDS011;27319;50.306;18.926;2023-04-22T17:14:20;5.03;;;3.40;;
41623;SDS011;27319;50.306;18.926;2023-04-22T17:18:20;7.00;;;3.83;;
41623;SDS011;27319;50.306;18.926;2023-04-22T17:22:05;6.80;;;3.70;;
41623;SDS011;27319;50.306;18.926;2023-04-22T17:26:06;5.95;;;3.85;;
41623;SDS011;27319;50.306;18.926;2023-04-22T17:29:07;9.00;;;4.28;;
41623;SDS011;27319;50.306;18.926;2023-04-22T17:32:08;5.10;;;3.90;;
41623;SDS011;27319;50.306;18.926;2023-04-22T17:35:09;9.38;;;4.70;;
41623;SDS011;27319;50.306;18.926;2023-04-22T17:38:11;6.55;;;4.00;;
41623;SDS011;27319;50.306;18.926;2023-04-22T17:41:12;10.38;;;4.90;;
41623;SDS011;27319;50.306;18.926;2023-04-22T17:45:13;17.40;;;6.00;;
41623;SDS011;27319;50.306;18.926;2023-04-22T17:49:13;13.15;;;4.95;;
41623;SDS011;27319;50.306;18.926;2023-04-22T17:53:14;10.50;;;5.07;;
41623;SDS011;27319;50.306;18.926;2023-04-22T17:57:14;10.35;;;5.93;;
41623;SDS011;27319;50.306;18.926;2023-04-22T18:01:15;9.65;;;6.05;;
41623;SDS011;27319;50.306;18.926;2023-04-22T18:05:16;16.67;;;9.18;;
41623;SDS011;27319;50.306;18.926;2023-04-22T18:08:17;15.52;;;9.38;;
41623;SDS011;27319;50.306;18.926;2023-04-22T18:12:18;14.63;;;8.82;;
41623;SDS011;27319;50.306;18.926;2023-04-22T18:16:19;15.77;;;8.90;;
41623;SDS011;27319;50.306;18.926;2023-04-22T18:20:20;15.90;;;10.40;;
41623;SDS011;27319;50.306;18.926;2023-04-22T18:24:20;16.95;;;13.15;;
41623;SDS011;27319;50.306;18.926;2023-04-22T18:28:21;19.10;;;13.68;;
41623;SDS011;27319;50.306;18.926;2023-04-22T18:31:22;21.42;;;12.63;;
41623;SDS011;27319;50.306;18.926;2023-04-22T18:34:23;24.67;;;12.00;;
41623;SDS011;27319;50.306;18.926;2023-04-22T18:37:24;17.25;;;11.13;;
41623;SDS011;27319;50.306;18.926;2023-04-22T18:40:29;14.43;;;10.50;;
41623;SDS011;27319;50.306;18.926;2023-04-22T18:43:30;17.90;;;9.88;;
41623;SDS011;27319;50.306;18.926;2023-04-22T18:46:31;16.33;;;10.27;;
41623;SDS011;27319;50.306;18.926;2023-04-22T18:49:31;16.60;;;9.25;;
41623;SDS011;27319;50.306;18.926;2023-04-22T18:52:33;10.70;;;7.35;;
41623;SDS011;27319;50.306;18.926;2023-04-22T18:55:34;10.90;;;7.50;;
41623;SDS011;27319;50.306;18.926;2023-04-22T18:58:35;12.13;;;8.27;;
41623;SDS011;27319;50.306;18.926;2023-04-22T19:01:36;13.82;;;8.70;;
41623;SDS011;27319;50.306;18.926;2023-04-22T19:05:36;11.80;;;8.70;;
41623;SDS011;27319;50.306;18.926;2023-04-22T19:08:38;17.38;;;9.32;;
41623;SDS011;27319;50.306;18.926;2023-04-22T19:12:38;13.88;;;8.57;;
41623;SDS011;27319;50.306;18.926;2023-04-22T19:16:39;17.30;;;11.75;;
41623;SDS011;27319;50.306;18.926;2023-04-22T19:20:40;30.13;;;20.05;;
41623;SDS011;27319;50.306;18.926;2023-04-22T19:24:41;32.45;;;20.33;;
41623;SDS011;27319;50.306;18.926;2023-04-22T19:28:19;24.67;;;17.55;;
41623;SDS011;27319;50.306;18.926;2023-04-22T19:31:19;26.20;;;16.15;;
41623;SDS011;27319;50.306;18.926;2023-04-22T19:34:21;26.45;;;16.40;;
41623;SDS011;27319;50.306;18.926;2023-04-22T19:37:21;22.52;;;14.27;;
41623;SDS011;27319;50.306;18.926;2023-04-22T19:41:22;19.42;;;12.80;;
41623;SDS011;27319;50.306;18.926;2023-04-22T19:45:23;17.10;;;11.43;;
41623;SDS011;27319;50.306;18.926;2023-04-22T19:49:24;16.77;;;10.75;;
41623;SDS011;27319;50.306;18.926;2023-04-22T19:53:25;20.08;;;10.82;;
41623;SDS011;27319;50.306;18.926;2023-04-22T19:57:25;20.02;;;10.75;;
41623;SDS011;27319;50.306;18.926;2023-04-22T20:01:10;20.95;;;11.15;;
41623;SDS011;27319;50.306;18.926;2023-04-22T20:04:11;22.75;;;11.68;;
41623;SDS011;27319;50.306;18.926;2023-04-22T20:08:12;17.15;;;10.40;;
41623;SDS011;27319;50.306;18.926;2023-04-22T20:11:14;17.77;;;11.38;;
41623;SDS011;27319;50.306;18.926;2023-04-22T20:14:16;15.65;;;10.45;;
41623;SDS011;27319;50.306;18.926;2023-04-22T20:17:56;15.20;;;10.38;;
41623;SDS011;27319;50.306;18.926;2023-04-22T20:21:22;18.40;;;10.27;;
41623;SDS011;27319;50.306;18.926;2023-04-22T20:25:23;19.40;;;10.57;;
41623;SDS011;27319;50.306;18.926;2023-04-22T20:28:26;15.88;;;10.30;;
41623;SDS011;27319;50.306;18.926;2023-04-22T20:32:28;18.85;;;10.95;;
41623;SDS011;27319;50.306;18.926;2023-04-22T20:36:29;14.85;;;10.00;;
41623;SDS011;27319;50.306;18.926;2023-04-22T20:40:30;19.85;;;10.98;;
41623;SDS011;27319;50.306;18.926;2023-04-22T20:44:30;15.35;;;9.48;;
41623;SDS011;27319;50.306;18.926;2023-04-22T20:48:31;20.35;;;10.40;;
41623;SDS011;27319;50.306;18.926;2023-04-22T20:52:32;19.83;;;9.98;;
41623;SDS011;27319;50.306;18.926;2023-04-22T20:56:00;14.63;;;8.90;;
41623;SDS011;27319;50.306;18.926;2023-04-22T21:00:01;17.70;;;10.32;;
41623;SDS011;27319;50.306;18.926;2023-04-22T21:04:02;17.30;;;9.60;;
41623;SDS011;27319;50.306;18.926;2023-04-22T21:08:03;16.45;;;9.88;;
41623;SDS011;27319;50.306;18.926;2023-04-22T21:11:24;14.88;;;9.55;;